Time;durP1;ratioP1;P1;durP2;ratioP2;P2;SDS_P1;SDS_P2;PMS_P1;PMS_P2;Temp;Humidity;BMP_temperature;BMP_pressure;BME280_temperature;BME280_humidity;BME280_pressure;Samples;Min_cycle;Max_cycle;Signal;HPM_P1;HPM_P2
2022/11/27 00:00:17;;;;;;;9.63;3.70;;;;;;;4.47;100.00;101854.69;687871;28;1342;-70
2022/11/27 00:00:37;;;;;;;7.18;3.33;;;;;;;4.43;100.00;101858.84;688074;28;1496;-70
2022/11/27 00:00:58;;;;;;;11.40;3.90;;;;;;;4.48;100.00;101859.03;687378;28;1640;-68
2022/11/27 00:01:21;;;;;;;11.05;4.03;;;;;;;4.44;100.00;101858.03;689399;28;1238;-71
2022/11/27 00:01:41;;;;;;;9.02;3.28;;;;;;;4.38;100.00;101855.22;690173;28;1969;-70
2022/11/27 00:02:02;;;;;;;8.55;3.30;;;;;;;4.36;100.00;101855.16;687451;28;2269;-69
2022/11/27 00:02:22;;;;;;;8.37;3.33;;;;;;;4.35;100.00;101848.19;687333;28;1410;-70
2022/11/27 00:02:43;;;;;;;7.30;3.17;;;;;;;4.43;100.00;101851.06;687095;28;4442;-69
2022/11/27 00:03:03;;;;;;;8.13;3.30;;;;;;;4.44;100.00;101852.84;687619;28;1545;-69
2022/11/27 00:03:24;;;;;;;11.23;3.80;;;;;;;4.49;100.00;101850.47;687405;28;1567;-70
2022/11/27 00:03:45;;;;;;;9.23;3.80;;;;;;;4.47;100.00;101849.50;687638;28;1420;-69
2022/11/27 00:04:07;;;;;;;7.83;3.10;;;;;;;4.50;100.00;101850.53;687678;28;2204;-70
2022/11/27 00:04:27;;;;;;;7.47;3.25;;;;;;;4.57;100.00;101849.06;686789;28;2249;-70
2022/11/27 00:04:47;;;;;;;9.10;3.90;;;;;;;4.55;100.00;101855.88;687872;28;1322;-69
2022/11/27 00:05:08;;;;;;;8.73;3.40;;;;;;;4.53;100.00;101849.75;687874;28;1697;-71
2022/11/27 00:05:28;;;;;;;8.70;3.10;;;;;;;4.54;100.00;101848.91;687993;28;1270;-70
2022/11/27 00:05:57;;;;;;;7.63;3.10;;;;;;;4.62;100.00;101849.22;684929;28;4342;-68
2022/11/27 00:06:22;;;;;;;10.82;3.50;;;;;;;4.55;100.00;101848.09;687212;28;1498;-69
2022/11/27 00:06:42;;;;;;;8.38;3.72;;;;;;;4.52;100.00;101843.69;687251;28;1521;-69
2022/11/27 00:07:02;;;;;;;7.83;3.67;;;;;;;4.60;100.00;101851.75;687623;28;1507;-70
2022/11/27 00:07:23;;;;;;;7.70;3.43;;;;;;;4.64;100.00;101851.06;687575;28;1302;-71
2022/11/27 00:07:43;;;;;;;7.90;3.30;;;;;;;4.61;100.00;101845.75;687720;28;1543;-70
2022/11/27 00:08:03;;;;;;;7.47;3.27;;;;;;;4.64;100.00;101844.97;687003;28;1334;-70
2022/11/27 00:08:24;;;;;;;8.30;3.10;;;;;;;4.63;100.00;101849.28;687422;28;1751;-70
2022/11/27 00:08:45;;;;;;;10.68;3.45;;;;;;;4.57;100.00;101843.88;685940;28;4532;-70
2022/11/27 00:09:09;;;;;;;10.98;3.65;;;;;;;4.60;100.00;101844.00;687687;28;1449;-70
2022/11/27 00:09:29;;;;;;;11.32;3.30;;;;;;;4.58;100.00;101851.69;687682;28;1321;-69
2022/11/27 00:09:50;;;;;;;10.47;3.40;;;;;;;4.53;100.00;101842.00;687732;28;1159;-69
2022/11/27 00:10:11;;;;;;;7.60;3.13;;;;;;;4.52;100.00;101845.41;687258;28;1217;-71
2022/11/27 00:10:31;;;;;;;7.93;3.13;;;;;;;4.48;100.00;101838.31;687103;28;1602;-70
2022/11/27 00:10:51;;;;;;;8.30;3.23;;;;;;;4.47;100.00;101849.50;686954;28;1390;-70
2022/11/27 00:11:18;;;;;;;8.97;3.40;;;;;;;4.47;100.00;101847.78;687260;28;2124;-68
2022/11/27 00:11:39;;;;;;;9.88;3.63;;;;;;;4.43;100.00;101836.44;687899;28;2250;-71
2022/11/27 00:11:59;;;;;;;9.13;3.42;;;;;;;4.43;100.00;101841.63;689223;28;4549;-69
2022/11/27 00:12:19;;;;;;;7.57;3.33;;;;;;;4.46;100.00;101838.28;687131;28;1394;-69
2022/11/27 00:12:40;;;;;;;8.02;3.25;;;;;;;4.48;100.00;101841.78;687768;28;1186;-69
2022/11/27 00:13:00;;;;;;;8.87;3.50;;;;;;;4.45;100.00;101839.09;687963;28;1319;-69
2022/11/27 00:13:20;;;;;;;8.23;3.27;;;;;;;4.41;100.00;101832.91;689240;28;5590;-70
2022/11/27 00:13:41;;;;;;;7.10;3.17;;;;;;;4.46;100.00;101840.88;688991;28;1798;-69
2022/11/27 00:14:02;;;;;;;6.82;3.30;;;;;;;4.47;100.00;101844.31;689487;28;1814;-70
2022/11/27 00:14:22;;;;;;;8.90;3.43;;;;;;;4.45;100.00;101838.22;687299;28;1548;-69
2022/11/27 00:14:42;;;;;;;8.68;3.40;;;;;;;4.44;100.00;101839.91;688521;28;4618;-70
2022/11/27 00:15:03;;;;;;;8.73;3.30;;;;;;;4.44;100.00;101839.91;688159;28;1508;-69
2022/11/27 00:15:23;;;;;;;7.15;3.30;;;;;;;4.52;100.00;101840.22;688055;28;1516;-69
2022/11/27 00:15:44;;;;;;;8.30;3.37;;;;;;;4.58;100.00;101837.84;687981;28;1602;-70
2022/11/27 00:16:05;;;;;;;8.85;3.22;;;;;;;4.58;100.00;101836.16;689138;28;1413;-69
2022/11/27 00:16:27;;;;;;;9.52;3.50;;;;;;;4.56;100.00;101844.69;687202;28;1179;-68
2022/11/27 00:16:47;;;;;;;10.18;3.65;;;;;;;4.54;100.00;101839.47;688882;28;1366;-68
2022/11/27 00:17:07;;;;;;;9.83;3.57;;;;;;;4.51;100.00;101841.03;687280;28;1329;-68
2022/11/27 00:17:28;;;;;;;9.48;3.35;;;;;;;4.54;100.00;101844.63;687926;28;1349;-69
2022/11/27 00:17:49;;;;;;;8.63;3.42;;;;;;;4.49;100.00;101835.78;684912;28;4690;-71
2022/11/27 00:18:09;;;;;;;9.03;3.30;;;;;;;4.47;100.00;101832.25;687087;28;1194;-69
2022/11/27 00:18:30;;;;;;;8.18;3.35;;;;;;;4.43;100.00;101839.03;687216;28;1345;-70
2022/11/27 00:18:51;;;;;;;8.63;3.43;;;;;;;4.50;100.00;101841.84;687788;28;1314;-70
2022/11/27 00:19:11;;;;;;;7.28;3.20;;;;;;;4.46;100.00;101839.97;687406;28;1338;-71
2022/11/27 00:19:31;;;;;;;9.20;3.50;;;;;;;4.43;100.00;101830.34;687586;28;1381;-70
2022/11/27 00:19:52;;;;;;;8.93;3.40;;;;;;;4.45;100.00;101835.63;687325;28;1384;-69
2022/11/27 00:20:12;;;;;;;9.60;3.50;;;;;;;4.50;100.00;101840.16;687911;28;1175;-70
2022/11/27 00:20:33;;;;;;;8.97;3.47;;;;;;;4.50;100.00;101832.38;687711;28;1275;-70
2022/11/27 00:20:53;;;;;;;9.18;3.72;;;;;;;4.56;100.00;101837.78;687529;28;4278;-70
2022/11/27 00:21:23;;;;;;;8.70;3.27;;;;;;;4.50;100.00;101837.56;687390;28;1242;-69
2022/11/27 00:21:43;;;;;;;7.40;3.42;;;;;;;4.52;100.00;101832.44;687875;28;1915;-71
2022/11/27 00:22:04;;;;;;;8.23;3.60;;;;;;;4.47;100.00;101829.66;687909;28;1297;-68
2022/11/27 00:22:25;;;;;;;7.93;3.33;;;;;;;4.52;100.00;101835.91;687648;28;1221;-70
2022/11/27 00:22:45;;;;;;;7.00;3.33;;;;;;;4.54;100.00;101834.28;687621;28;1547;-72
2022/11/27 00:23:06;;;;;;;10.60;3.70;;;;;;;4.50;100.00;101832.38;688087;28;1250;-70
2022/11/27 00:23:26;;;;;;;8.87;3.20;;;;;;;4.57;100.00;101833.53;687264;28;1325;-70
2022/11/27 00:23:47;;;;;;;10.20;3.50;;;;;;;4.58;100.00;101830.09;685988;28;4330;-70
2022/11/27 00:24:09;;;;;;;9.95;3.50;;;;;;;4.53;100.00;101832.50;684677;28;1211;-70
2022/11/27 00:24:30;;;;;;;7.55;3.20;;;;;;;4.51;100.00;101833.25;684176;28;1370;-69
2022/11/27 00:24:51;;;;;;;6.47;3.30;;;;;;;4.54;100.00;101833.38;684697;28;1144;-70
2022/11/27 00:25:11;;;;;;;8.43;3.60;;;;;;;4.49;100.00;101835.78;684745;28;1247;-70
2022/11/27 00:25:32;;;;;;;9.20;3.55;;;;;;;4.48;100.00;101835.75;685044;28;1365;-70
2022/11/27 00:25:52;;;;;;;7.97;3.45;;;;;;;4.54;100.00;101830.78;684923;28;1452;-69
2022/11/27 00:26:13;;;;;;;9.07;3.30;;;;;;;4.55;100.00;101829.97;684783;28;1283;-69
2022/11/27 00:26:34;;;;;;;11.05;3.80;;;;;;;4.52;100.00;101832.44;681609;28;1334;-69
2022/11/27 00:26:54;;;;;;;10.03;3.57;;;;;;;4.53;100.00;101832.50;681272;28;4287;-68
2022/11/27 00:27:15;;;;;;;7.25;3.40;;;;;;;4.62;100.00;101833.69;679383;29;1839;-69
2022/11/27 00:27:37;;;;;;;10.70;4.05;;;;;;;4.66;100.00;101830.38;679191;29;1382;-70
2022/11/27 00:27:57;;;;;;;8.00;3.28;;;;;;;4.65;100.00;101831.19;679350;29;1308;-69
2022/11/27 00:28:18;;;;;;;6.87;2.87;;;;;;;4.65;100.00;101834.66;680105;29;1189;-70
2022/11/27 00:28:39;;;;;;;7.70;3.10;;;;;;;4.63;100.00;101838.03;679315;28;1390;-68
2022/11/27 00:29:00;;;;;;;7.93;3.10;;;;;;;4.64;100.00;101827.75;680188;28;1390;-71
2022/11/27 00:29:21;;;;;;;6.50;2.83;;;;;;;4.58;100.00;101835.25;683118;28;1155;-69
2022/11/27 00:29:41;;;;;;;7.23;3.33;;;;;;;4.57;100.00;101829.22;679744;28;4549;-69
2022/11/27 00:30:02;;;;;;;9.05;3.67;;;;;;;4.54;100.00;101836.88;680832;28;1318;-70
2022/11/27 00:30:23;;;;;;;10.00;3.70;;;;;;;4.52;100.00;101824.69;680421;28;1137;-69
2022/11/27 00:30:43;;;;;;;10.68;3.78;;;;;;;4.58;100.00;101830.09;682414;28;1437;-70
2022/11/27 00:31:27;;;;;;;8.63;3.30;;;;;;;4.50;100.00;101826.31;679271;29;1698;-70
2022/11/27 00:31:47;;;;;;;10.38;4.10;;;;;;;4.46;100.00;101827.00;681868;28;1546;-69
2022/11/27 00:32:08;;;;;;;8.57;3.30;;;;;;;4.47;100.00;101832.25;681846;29;1525;-72
2022/11/27 00:32:28;;;;;;;9.73;3.63;;;;;;;4.43;100.00;101826.09;679372;29;1458;-69
2022/11/27 00:32:49;;;;;;;9.93;3.53;;;;;;;4.40;100.00;101831.16;679677;29;4549;-70
2022/11/27 00:33:09;;;;;;;9.63;3.10;;;;;;;4.39;100.00;101829.38;683196;28;1350;-69
2022/11/27 00:33:30;;;;;;;8.13;3.25;;;;;;;4.42;100.00;101833.78;682580;28;1424;-68
2022/11/27 00:33:53;;;;;;;8.13;3.60;;;;;;;4.43;100.00;101820.00;682753;28;1298;-68
2022/11/27 00:34:13;;;;;;;9.25;3.22;;;;;;;4.44;100.00;101832.13;683997;28;1227;-69
2022/11/27 00:34:34;;;;;;;7.53;3.25;;;;;;;4.52;100.00;101824.69;685167;28;1374;-69
2022/11/27 00:34:54;;;;;;;7.53;3.55;;;;;;;4.51;100.00;101822.91;685238;28;1583;-69
2022/11/27 00:35:15;;;;;;;8.13;3.60;;;;;;;4.59;100.00;101829.25;684783;28;1283;-69
2022/11/27 00:35:37;;;;;;;9.02;3.80;;;;;;;4.59;100.00;101824.09;686862;28;1366;-70
2022/11/27 00:36:02;;;;;;;8.77;3.30;;;;;;;4.65;100.00;101823.44;685982;28;4408;-71
2022/11/27 00:36:23;;;;;;;7.80;3.60;;;;;;;4.58;100.00;101819.72;683794;28;1172;-70
2022/11/27 00:36:44;;;;;;;7.65;3.45;;;;;;;4.59;100.00;101827.53;682503;28;1556;-70
2022/11/27 00:37:06;;;;;;;7.63;3.42;;;;;;;4.63;100.00;101818.19;682644;28;1378;-69
2022/11/27 00:37:26;;;;;;;8.18;3.65;;;;;;;4.64;100.00;101819.97;680808;28;1188;-70
2022/11/27 00:37:46;;;;;;;8.87;3.47;;;;;;;4.65;100.00;101820.84;682373;29;1619;-69
2022/11/27 00:38:07;;;;;;;10.10;3.22;;;;;;;4.71;100.00;101821.97;682676;28;1545;-69
2022/11/27 00:38:27;;;;;;;8.32;3.20;;;;;;;4.70;100.00;101820.19;684998;28;1323;-70
2022/11/27 00:38:48;;;;;;;7.37;3.33;;;;;;;4.65;100.00;101815.66;684274;28;4363;-68
2022/11/27 00:39:09;;;;;;;7.30;3.30;;;;;;;4.61;100.00;101825.03;684697;28;1381;-69
2022/11/27 00:39:29;;;;;;;8.14;3.38;;;;;;;4.62;100.00;101828.50;684670;28;1552;-70
2022/11/27 00:39:50;;;;;;;7.10;3.50;;;;;;;4.65;100.00;101820.84;684810;28;1164;-69
2022/11/27 00:40:11;;;;;;;6.55;2.95;;;;;;;4.63;100.00;101819.91;684982;28;1328;-69
2022/11/27 00:40:31;;;;;;;10.38;3.55;;;;;;;4.56;100.00;101822.25;685314;28;1239;-69
2022/11/27 00:40:52;;;;;;;8.13;3.37;;;;;;;4.56;100.00;101823.97;685295;28;1169;-70
2022/11/27 00:41:20;;;;;;;7.63;3.10;;;;;;;4.54;100.00;101820.44;684972;28;1211;-67
2022/11/27 00:41:41;;;;;;;8.90;3.20;;;;;;;4.48;100.00;101827.97;676432;28;4324;-69
2022/11/27 00:42:01;;;;;;;8.47;3.37;;;;;;;4.48;100.00;101828.84;684389;28;1887;-69
2022/11/27 00:42:22;;;;;;;9.00;3.30;;;;;;;4.57;100.00;101828.34;682188;29;1453;-70
2022/11/27 00:42:42;;;;;;;8.50;3.10;;;;;;;4.55;100.00;101819.63;682328;29;1516;-69
2022/11/27 00:43:03;;;;;;;9.05;3.10;;;;;;;4.54;100.00;101825.59;682519;29;1275;-68
2022/11/27 00:43:23;;;;;;;8.27;3.20;;;;;;;4.57;100.00;101823.16;681441;28;1353;-69
2022/11/27 00:43:44;;;;;;;8.47;3.30;;;;;;;4.54;100.00;101823.00;682411;28;1528;-70
2022/11/27 00:44:05;;;;;;;8.30;3.45;;;;;;;4.51;100.00;101822.91;684898;28;1298;-70
2022/11/27 00:44:25;;;;;;;7.57;3.25;;;;;;;4.49;100.00;101821.97;681832;28;1303;-68
2022/11/27 00:44:46;;;;;;;7.63;3.30;;;;;;;4.48;100.00;101823.66;683215;28;4516;-68
2022/11/27 00:45:07;;;;;;;8.52;3.00;;;;;;;4.52;100.00;101827.28;684777;28;1492;-69
2022/11/27 00:45:27;;;;;;;8.00;3.17;;;;;;;4.53;100.00;101821.28;682378;28;1569;-70
2022/11/27 00:45:49;;;;;;;8.80;3.20;;;;;;;4.49;100.00;101820.25;685295;28;1276;-70
2022/11/27 00:46:09;;;;;;;6.43;3.05;;;;;;;4.49;100.00;101814.22;684799;28;1486;-69
2022/11/27 00:46:31;;;;;;;9.20;3.20;;;;;;;4.56;100.00;101817.06;684510;28;1576;-70
2022/11/27 00:46:51;;;;;;;7.63;2.78;;;;;;;4.57;100.00;101817.97;684504;28;2307;-69
2022/11/27 00:47:12;;;;;;;6.20;2.90;;;;;;;4.60;100.00;101818.09;687274;28;1313;-70
2022/11/27 00:47:32;;;;;;;8.17;2.70;;;;;;;4.59;100.00;101816.31;687327;28;1865;-69
2022/11/27 00:47:53;;;;;;;10.10;3.38;;;;;;;4.55;100.00;101810.13;688845;28;4417;-70
2022/11/27 00:48:13;;;;;;;8.20;3.40;;;;;;;4.57;100.00;101815.38;690264;28;1258;-68
2022/11/27 00:48:34;;;;;;;7.10;3.10;;;;;;;4.49;100.00;101816.81;690361;28;1314;-68
2022/11/27 00:48:55;;;;;;;8.63;3.20;;;;;;;4.50;100.00;101815.94;686998;28;1314;-68
2022/11/27 00:49:15;;;;;;;9.07;3.10;;;;;;;4.48;100.00;101808.13;687633;28;1139;-69
2022/11/27 00:49:36;;;;;;;7.03;3.00;;;;;;;4.47;100.00;101810.66;686069;28;1259;-68
2022/11/27 00:49:56;;;;;;;7.35;3.05;;;;;;;4.48;100.00;101807.25;687677;28;1384;-69
2022/11/27 00:50:17;;;;;;;9.27;3.10;;;;;;;4.51;100.00;101812.53;690186;28;1695;-70
2022/11/27 00:50:37;;;;;;;9.18;3.17;;;;;;;4.54;100.00;101817.84;686639;28;1577;-69
2022/11/27 00:51:04;;;;;;;8.03;3.30;;;;;;;4.52;100.00;101803.97;685414;28;4466;-70
2022/11/27 00:51:25;;;;;;;8.43;3.20;;;;;;;4.59;100.00;101821.50;685577;28;1441;-68
2022/11/27 00:51:46;;;;;;;7.47;3.00;;;;;;;4.57;100.00;101807.63;686644;28;1441;-69
2022/11/27 00:52:06;;;;;;;6.72;3.00;;;;;;;4.52;100.00;101809.13;686243;28;1562;-68
2022/11/27 00:52:26;;;;;;;7.93;3.30;;;;;;;4.48;100.00;101815.03;687261;28;1262;-69
2022/11/27 00:52:47;;;;;;;7.37;3.13;;;;;;;4.51;100.00;101808.25;690268;28;1464;-69
2022/11/27 00:53:07;;;;;;;8.07;3.00;;;;;;;4.50;100.00;101810.78;687459;28;1329;-69
2022/11/27 00:53:28;;;;;;;6.88;3.00;;;;;;;4.49;100.00;101809.03;687426;28;1485;-69
2022/11/27 00:53:49;;;;;;;6.50;3.05;;;;;;;4.50;100.00;101806.50;686997;28;4381;-68
2022/11/27 00:54:09;;;;;;;6.67;3.10;;;;;;;4.48;100.00;101807.25;687224;28;1234;-68
2022/11/27 00:54:30;;;;;;;6.82;3.00;;;;;;;4.46;100.00;101808.88;687499;28;1804;-70
2022/11/27 00:54:50;;;;;;;7.20;2.77;;;;;;;4.49;100.00;101816.81;687324;28;1373;-69
2022/11/27 00:55:11;;;;;;;7.30;2.95;;;;;;;4.55;100.00;101811.84;687383;28;1367;-69
2022/11/27 00:55:31;;;;;;;8.73;3.47;;;;;;;4.52;100.00;101814.31;688037;28;1439;-69
2022/11/27 00:55:52;;;;;;;9.60;3.23;;;;;;;4.48;100.00;101809.84;689934;28;1419;-69
2022/11/27 00:56:15;;;;;;;8.63;3.03;;;;;;;4.45;100.00;101818.38;688648;28;1191;-70
2022/11/27 00:56:37;;;;;;;10.30;3.20;;;;;;;4.55;100.00;101811.84;686909;28;1302;-70
2022/11/27 00:56:58;;;;;;;9.20;3.15;;;;;;;4.52;100.00;101814.31;683260;28;4380;-70
2022/11/27 00:57:18;;;;;;;9.37;3.50;;;;;;;4.54;100.00;101815.25;684515;28;1412;-70
2022/11/27 00:57:39;;;;;;;7.75;3.55;;;;;;;4.50;100.00;101813.38;684954;28;1720;-70
2022/11/27 00:57:59;;;;;;;8.10;3.27;;;;;;;4.53;100.00;101816.09;685261;28;1447;-69
2022/11/27 00:58:19;;;;;;;8.77;3.20;;;;;;;4.60;100.00;101807.72;687156;28;1212;-69
2022/11/27 00:58:40;;;;;;;8.82;3.03;;;;;;;4.55;100.00;101814.44;687944;28;1345;-69
2022/11/27 00:59:01;;;;;;;8.53;3.10;;;;;;;4.55;100.00;101814.44;690072;28;1092;-68
2022/11/27 00:59:21;;;;;;;7.18;3.08;;;;;;;4.52;100.00;101809.13;687108;28;1199;-69
2022/11/27 00:59:41;;;;;;;8.73;3.33;;;;;;;4.48;100.00;101808.13;687143;28;4352;-69
2022/11/27 01:00:04;;;;;;;7.07;3.00;;;;;;;4.43;100.00;101810.56;686778;28;1124;-70
2022/11/27 01:00:24;;;;;;;9.60;3.30;;;;;;;4.42;100.00;101811.38;687267;28;1324;-70
2022/11/27 01:00:44;;;;;;;8.67;3.10;;;;;;;4.45;100.00;101817.50;685048;28;1472;-69
2022/11/27 01:01:06;;;;;;;7.50;2.90;;;;;;;4.42;100.00;101813.09;684815;28;1611;-70
2022/11/27 01:01:29;;;;;;;6.82;3.20;;;;;;;4.38;100.00;101811.19;687324;28;1397;-71
2022/11/27 01:01:50;;;;;;;7.82;3.50;;;;;;;4.44;100.00;101811.41;687342;28;3865;-68
2022/11/27 01:02:10;;;;;;;7.60;3.27;;;;;;;4.47;100.00;101811.53;686425;28;1443;-69
2022/11/27 01:02:31;;;;;;;7.22;3.00;;;;;;;4.43;100.00;101809.66;687685;28;1243;-69
2022/11/27 01:02:51;;;;;;;7.60;3.30;;;;;;;4.47;100.00;101816.72;685635;28;4400;-70
2022/11/27 01:03:11;;;;;;;9.05;3.28;;;;;;;4.49;100.00;101804.72;685109;28;1183;-70
2022/11/27 01:03:33;;;;;;;8.00;3.10;;;;;;;4.47;100.00;101802.91;685180;28;1218;-69
2022/11/27 01:03:55;;;;;;;6.45;3.05;;;;;;;4.52;100.00;101811.72;685116;28;1375;-70
2022/11/27 01:04:15;;;;;;;7.35;3.10;;;;;;;4.49;100.00;101814.22;684619;28;1375;-70
2022/11/27 01:04:36;;;;;;;6.83;2.97;;;;;;;4.45;100.00;101809.72;685120;28;1530;-70
2022/11/27 01:04:56;;;;;;;7.27;3.10;;;;;;;4.47;100.00;101805.47;684787;28;1335;-69
2022/11/27 01:05:16;;;;;;;7.97;3.13;;;;;;;4.45;100.00;101813.19;685273;28;1143;-70
2022/11/27 01:05:37;;;;;;;9.43;3.40;;;;;;;4.43;100.00;101807.06;682238;28;1303;-70
2022/11/27 01:06:02;;;;;;;7.68;3.05;;;;;;;4.46;100.00;101808.88;681626;28;4300;-70
2022/11/27 01:06:24;;;;;;;8.40;2.92;;;;;;;4.52;100.00;101816.91;681163;28;1215;-68
2022/11/27 01:06:44;;;;;;;7.03;2.55;;;;;;;4.55;100.00;101809.25;682803;28;1433;-71
2022/11/27 01:07:05;;;;;;;6.10;3.10;;;;;;;4.54;100.00;101808.38;684628;28;1300;-70
2022/11/27 01:07:25;;;;;;;6.63;3.20;;;;;;;4.54;100.00;101808.38;684912;28;1108;-71
2022/11/27 01:07:46;;;;;;;6.32;2.92;;;;;;;4.53;100.00;101816.09;684774;28;1444;-70
2022/11/27 01:08:06;;;;;;;7.70;3.00;;;;;;;4.56;100.00;101816.22;684421;28;1315;-70
2022/11/27 01:08:26;;;;;;;9.43;3.30;;;;;;;4.50;100.00;101810.78;684417;28;1116;-69
2022/11/27 01:08:47;;;;;;;9.87;3.37;;;;;;;4.48;100.00;101813.31;684502;28;4288;-69
2022/11/27 01:09:07;;;;;;;8.43;2.93;;;;;;;4.53;100.00;101814.38;684841;28;1315;-69
2022/11/27 01:09:28;;;;;;;9.07;3.08;;;;;;;4.50;100.00;101819.44;684959;28;1370;-71
2022/11/27 01:09:48;;;;;;;7.73;3.20;;;;;;;4.43;100.00;101814.81;682162;28;1473;-70
2022/11/27 01:10:09;;;;;;;8.43;3.13;;;;;;;4.39;100.00;101815.56;681723;28;1350;-70
2022/11/27 01:10:29;;;;;;;7.93;3.05;;;;;;;4.34;100.00;101815.34;682223;28;1498;-71
2022/11/27 01:10:54;;;;;;;7.77;3.10;;;;;;;4.44;100.00;101811.41;682036;28;1497;-70
2022/11/27 01:11:30;;;;;;;9.52;2.90;;;;;;;4.51;100.00;101818.59;682109;28;1516;-69
2022/11/27 01:11:50;;;;;;;6.70;3.13;;;;;;;4.50;100.00;101819.44;686779;28;4454;-69
2022/11/27 01:12:11;;;;;;;7.40;3.13;;;;;;;4.50;100.00;101816.84;687305;28;1349;-69
2022/11/27 01:12:31;;;;;;;6.63;2.87;;;;;;;4.50;100.00;101815.94;687585;28;1244;-68
2022/11/27 01:12:51;;;;;;;6.93;3.00;;;;;;;4.51;100.00;101816.00;687200;28;1273;-69
2022/11/27 01:13:12;;;;;;;7.60;2.90;;;;;;;4.50;100.00;101811.69;684852;28;1168;-69
2022/11/27 01:13:35;;;;;;;7.23;3.10;;;;;;;4.51;100.00;101817.72;685153;28;1341;-69
2022/11/27 01:13:58;;;;;;;8.40;3.22;;;;;;;4.47;100.00;101810.66;684371;28;1334;-70
2022/11/27 01:14:18;;;;;;;7.75;3.10;;;;;;;4.48;100.00;101817.63;685000;28;1113;-69
2022/11/27 01:14:38;;;;;;;8.15;3.10;;;;;;;4.48;100.00;101815.03;684988;28;1311;-70
2022/11/27 01:14:59;;;;;;;7.30;2.97;;;;;;;4.47;100.00;101816.72;684471;28;4318;-70
2022/11/27 01:15:19;;;;;;;7.63;3.25;;;;;;;4.50;100.00;101815.94;684402;28;1312;-69
2022/11/27 01:15:39;;;;;;;7.10;3.37;;;;;;;4.47;100.00;101824.47;685104;28;1282;-70
2022/11/27 01:16:06;;;;;;;8.50;3.30;;;;;;;4.50;100.00;101822.03;682416;29;1205;-69
2022/11/27 01:16:28;;;;;;;7.70;3.00;;;;;;;4.44;100.00;101816.59;681533;28;1259;-69
2022/11/27 01:16:48;;;;;;;9.38;3.00;;;;;;;4.42;100.00;101819.13;681758;29;1402;-69
2022/11/27 01:17:09;;;;;;;7.53;2.90;;;;;;;4.47;100.00;101815.84;681871;28;1383;-70
2022/11/27 01:17:29;;;;;;;9.10;3.20;;;;;;;4.41;100.00;101819.06;683591;28;1425;-69
2022/11/27 01:17:49;;;;;;;7.63;3.03;;;;;;;4.48;100.00;101820.19;684450;28;4311;-70
2022/11/27 01:18:10;;;;;;;5.68;2.80;;;;;;;4.50;100.00;101815.94;684950;28;1610;-70
2022/11/27 01:18:31;;;;;;;6.70;2.90;;;;;;;4.54;100.00;101823.91;684707;28;1358;-69
2022/11/27 01:18:54;;;;;;;6.70;2.83;;;;;;;4.50;100.00;101815.94;686932;28;1527;-68
2022/11/27 01:19:14;;;;;;;6.95;3.17;;;;;;;4.45;100.00;101820.97;684045;28;1151;-69
2022/11/27 01:19:36;;;;;;;8.33;3.00;;;;;;;4.43;100.00;101825.19;682187;29;1401;-70
2022/11/27 01:19:56;;;;;;;7.78;2.80;;;;;;;4.46;100.00;101819.25;682275;28;1393;-66
2022/11/27 01:20:17;;;;;;;8.77;3.23;;;;;;;4.49;100.00;101819.38;682000;28;1210;-69
2022/11/27 01:20:39;;;;;;;8.93;3.20;;;;;;;4.48;100.00;101818.50;681772;29;1314;-70
2022/11/27 01:21:00;;;;;;;8.18;3.28;;;;;;;4.44;100.00;101816.59;684628;28;5090;-70
2022/11/27 01:21:21;;;;;;;7.18;2.95;;;;;;;4.40;100.00;101815.63;687315;28;1261;-69
2022/11/27 01:21:41;;;;;;;8.75;3.00;;;;;;;4.39;100.00;101818.16;687734;28;1341;-70
2022/11/27 01:22:01;;;;;;;9.87;3.40;;;;;;;4.41;100.00;101816.50;687408;28;1911;-70
2022/11/27 01:22:22;;;;;;;7.07;3.08;;;;;;;4.41;100.00;101811.31;687214;28;1201;-70
2022/11/27 01:22:42;;;;;;;7.77;2.90;;;;;;;4.43;100.00;101814.81;687672;28;1421;-69
2022/11/27 01:23:03;;;;;;;7.55;2.85;;;;;;;4.43;100.00;101815.72;687447;28;1492;-69
2022/11/27 01:23:23;;;;;;;6.60;2.93;;;;;;;4.47;100.00;101821.03;685088;28;1421;-70
2022/11/27 01:23:44;;;;;;;7.90;3.13;;;;;;;4.46;100.00;101819.25;687131;28;4422;-68
2022/11/27 01:24:05;;;;;;;8.08;3.32;;;;;;;4.41;100.00;101822.53;687639;28;1377;-68
2022/11/27 01:24:25;;;;;;;8.53;3.33;;;;;;;4.35;100.00;101817.13;686796;28;1204;-70
2022/11/27 01:24:45;;;;;;;6.97;3.40;;;;;;;4.31;100.00;101812.66;687199;28;1357;-69
2022/11/27 01:25:07;;;;;;;7.60;3.30;;;;;;;4.37;100.00;101809.44;687461;28;1266;-70
2022/11/27 01:25:27;;;;;;;6.72;2.92;;;;;;;4.41;100.00;101821.66;689629;28;1489;-70
2022/11/27 01:25:47;;;;;;;6.00;3.03;;;;;;;4.40;100.00;101819.91;690099;28;1572;-68
2022/11/27 01:26:10;;;;;;;7.67;3.03;;;;;;;4.35;100.00;101819.72;687491;28;1476;-69
2022/11/27 01:26:31;;;;;;;7.90;3.03;;;;;;;4.29;100.00;101822.06;689362;28;1395;-68
2022/11/27 01:26:51;;;;;;;6.78;2.80;;;;;;;4.31;100.00;101820.44;689616;28;4491;-68
2022/11/27 01:27:11;;;;;;;6.30;2.40;;;;;;;4.34;100.00;101812.78;689739;28;1218;-68
2022/11/27 01:27:32;;;;;;;8.00;2.88;;;;;;;4.37;100.00;101822.38;687883;28;1259;-69
2022/11/27 01:27:52;;;;;;;7.87;3.17;;;;;;;4.37;100.00;101812.00;688447;28;1350;-67
2022/11/27 01:28:13;;;;;;;7.22;2.63;;;;;;;4.35;100.00;101811.97;687823;28;1285;-70
2022/11/27 01:28:35;;;;;;;8.32;3.20;;;;;;;4.37;100.00;101818.06;687573;28;1656;-71
2022/11/27 01:28:57;;;;;;;8.27;3.30;;;;;;;4.34;100.00;101817.94;687521;28;1014;-69
2022/11/27 01:29:17;;;;;;;6.85;2.80;;;;;;;4.34;100.00;101815.34;686259;28;1270;-69
2022/11/27 01:29:37;;;;;;;7.70;2.85;;;;;;;4.32;100.00;101817.03;686998;28;1436;-69
2022/11/27 01:29:59;;;;;;;7.70;3.00;;;;;;;4.29;100.00;101814.28;688794;28;4349;-69
2022/11/27 01:30:19;;;;;;;7.40;3.28;;;;;;;4.25;100.00;101812.41;688068;28;1135;-69
2022/11/27 01:30:39;;;;;;;7.40;3.50;;;;;;;4.28;100.00;101814.22;689013;28;1341;-69
2022/11/27 01:31:05;;;;;;;6.73;3.23;;;;;;;4.23;100.00;101808.88;687911;28;1231;-70
2022/11/27 01:31:29;;;;;;;6.13;3.00;;;;;;;4.29;100.00;101821.19;687182;28;1166;-69
2022/11/27 01:31:49;;;;;;;8.35;3.08;;;;;;;4.35;100.00;101817.13;687456;28;2580;-70
2022/11/27 01:32:09;;;;;;;10.00;3.23;;;;;;;4.33;100.00;101816.19;687608;28;1448;-70
2022/11/27 01:32:30;;;;;;;9.20;3.20;;;;;;;4.35;100.00;101817.13;687858;28;1591;-69
2022/11/27 01:32:50;;;;;;;8.27;3.13;;;;;;;4.34;100.00;101819.66;687205;28;4331;-69
2022/11/27 01:33:11;;;;;;;7.87;3.30;;;;;;;4.32;100.00;101810.94;687592;28;1265;-69
2022/11/27 01:33:31;;;;;;;7.17;2.97;;;;;;;4.34;100.00;101815.34;687298;28;1324;-70
2022/11/27 01:33:57;;;;;;;9.95;3.75;;;;;;;4.39;100.00;101819.03;687695;28;1365;-69
2022/11/27 01:34:18;;;;;;;7.40;3.30;;;;;;;4.38;100.00;101819.84;686909;28;1232;-70
2022/11/27 01:34:38;;;;;;;6.90;3.40;;;;;;;4.37;100.00;101815.47;687432;28;1314;-70
2022/11/27 01:34:59;;;;;;;7.30;3.27;;;;;;;4.40;100.00;101819.91;687657;28;1270;-69
2022/11/27 01:35:19;;;;;;;7.40;3.20;;;;;;;4.41;100.00;101811.31;687661;28;1246;-68
2022/11/27 01:35:39;;;;;;;7.37;3.20;;;;;;;4.42;100.00;101811.38;686952;28;4344;-70
2022/11/27 01:36:03;;;;;;;8.07;3.10;;;;;;;4.42;100.00;101815.66;685784;28;1287;-70
2022/11/27 01:36:24;;;;;;;7.53;2.95;;;;;;;4.34;100.00;101812.78;685780;28;1132;-68
2022/11/27 01:36:45;;;;;;;8.48;2.95;;;;;;;4.31;100.00;101812.66;686329;28;1421;-68
2022/11/27 01:37:05;;;;;;;7.07;3.10;;;;;;;4.34;100.00;101814.50;684858;28;1331;-69
2022/11/27 01:37:26;;;;;;;7.85;2.95;;;;;;;4.32;100.00;101818.72;686004;28;1139;-69
2022/11/27 01:37:46;;;;;;;6.77;2.87;;;;;;;4.39;100.00;101811.25;687515;28;1484;-70
2022/11/27 01:38:07;;;;;;;6.97;2.70;;;;;;;4.43;100.00;101815.72;687464;28;1497;-68
2022/11/27 01:38:29;;;;;;;7.78;2.85;;;;;;;4.46;100.00;101806.31;687832;28;1282;-69
2022/11/27 01:38:49;;;;;;;8.90;3.30;;;;;;;4.48;100.00;101812.44;687114;28;5303;-70
2022/11/27 01:39:15;;;;;;;7.57;3.20;;;;;;;4.41;100.00;101807.00;687669;28;1491;-69
2022/11/27 01:39:36;;;;;;;9.40;3.63;;;;;;;4.35;100.00;101816.25;686965;28;1404;-69
2022/11/27 01:39:56;;;;;;;9.23;3.40;;;;;;;4.31;100.00;101816.97;687375;28;1393;-70
2022/11/27 01:40:16;;;;;;;6.83;3.40;;;;;;;4.28;100.00;101815.13;687251;28;1126;-70
2022/11/27 01:40:37;;;;;;;6.73;3.47;;;;;;;4.35;100.00;101814.53;687276;28;1298;-70